sensor_id;sensor_type;location;lat;lon;timestamp;pressure;altitude;pressure_sealevel;temperature;humidity
56568;BME280;42456;49.956;20.004;2023-08-20T00:00:35;98723.16;;;18.81;84.88
56568;BME280;42456;49.956;20.004;2023-08-20T00:03:04;98719.86;;;18.78;84.98
56568;BME280;42456;49.956;20.004;2023-08-20T00:05:38;98721.41;;;18.76;85.05
56568;BME280;42456;49.956;20.004;2023-08-20T00:08:05;98716.00;;;18.74;84.98
56568;BME280;42456;49.956;20.004;2023-08-20T00:10:33;98714.73;;;18.72;85.03
56568;BME280;42456;49.956;20.004;2023-08-20T00:13:00;98715.55;;;18.69;85.09
56568;BME280;42456;49.956;20.004;2023-08-20T00:15:27;98717.96;;;18.68;85.23
56568;BME280;42456;49.956;20.004;2023-08-20T00:17:55;98715.08;;;18.67;85.50
56568;BME280;42456;49.956;20.004;2023-08-20T00:20:23;98713.80;;;18.66;85.30
56568;BME280;42456;49.956;20.004;2023-08-20T00:22:50;98716.27;;;18.64;85.35
56568;BME280;42456;49.956;20.004;2023-08-20T00:25:18;98713.69;;;18.63;85.36
56568;BME280;42456;49.956;20.004;2023-08-20T00:27:45;98710.33;;;18.61;85.62
56568;BME280;42456;49.956;20.004;2023-08-20T00:30:13;98708.13;;;18.59;85.83
56568;BME280;42456;49.956;20.004;2023-08-20T00:32:41;98708.48;;;18.58;85.55
56568;BME280;42456;49.956;20.004;2023-08-20T00:35:08;98706.28;;;18.56;85.68
56568;BME280;42456;49.956;20.004;2023-08-20T00:37:35;98704.14;;;18.53;86.16
56568;BME280;42456;49.956;20.004;2023-08-20T00:40:03;98697.75;;;18.51;86.30
56568;BME280;42456;49.956;20.004;2023-08-20T00:42:48;98703.12;;;18.51;86.25
56568;BME280;42456;49.956;20.004;2023-08-20T00:45:16;98699.67;;;18.49;86.50
56568;BME280;42456;49.956;20.004;2023-08-20T00:47:44;98703.00;;;18.49;86.87
56568;BME280;42456;49.956;20.004;2023-08-20T00:50:11;98702.86;;;18.49;86.80
56568;BME280;42456;49.956;20.004;2023-08-20T00:52:38;98702.63;;;18.49;86.83
56568;BME280;42456;49.956;20.004;2023-08-20T00:55:10;98700.66;;;18.48;87.03
56568;BME280;42456;49.956;20.004;2023-08-20T00:57:39;98696.38;;;18.47;87.11
56568;BME280;42456;49.956;20.004;2023-08-20T01:00:08;98698.00;;;18.47;86.66
56568;BME280;42456;49.956;20.004;2023-08-20T01:02:39;98698.60;;;18.46;87.41
56568;BME280;42456;49.956;20.004;2023-08-20T01:05:08;98695.04;;;18.46;87.42
56568;BME280;42456;49.956;20.004;2023-08-20T01:13:09;98695.93;;;18.44;87.48
56568;BME280;42456;49.956;20.004;2023-08-20T01:15:36;98698.23;;;18.41;87.36
56568;BME280;42456;49.956;20.004;2023-08-20T01:18:04;98703.58;;;18.39;87.46
56568;BME280;42456;49.956;20.004;2023-08-20T01:20:41;98706.39;;;18.36;87.57
56568;BME280;42456;49.956;20.004;2023-08-20T01:23:24;98702.23;;;18.34;87.93
56568;BME280;42456;49.956;20.004;2023-08-20T01:28:31;98703.17;;;18.29;87.73
56568;BME280;42456;49.956;20.004;2023-08-20T01:30:59;98707.13;;;18.28;87.69
56568;BME280;42456;49.956;20.004;2023-08-20T01:33:27;98707.56;;;18.26;87.68
56568;BME280;42456;49.956;20.004;2023-08-20T01:35:55;98704.18;;;18.24;87.69
56568;BME280;42456;49.956;20.004;2023-08-20T01:38:22;98703.69;;;18.21;87.97
56568;BME280;42456;49.956;20.004;2023-08-20T01:40:49;98706.77;;;18.20;87.95
56568;BME280;42456;49.956;20.004;2023-08-20T01:43:17;98707.60;;;18.18;87.73
56568;BME280;42456;49.956;20.004;2023-08-20T01:45:45;98711.23;;;18.16;87.96
56568;BME280;42456;49.956;20.004;2023-08-20T01:48:13;98711.45;;;18.15;88.09
56568;BME280;42456;49.956;20.004;2023-08-20T01:50:41;98706.70;;;18.14;88.51
56568;BME280;42456;49.956;20.004;2023-08-20T01:53:08;98708.69;;;18.13;88.20
56568;BME280;42456;49.956;20.004;2023-08-20T01:55:36;98707.05;;;18.12;88.28
56568;BME280;42456;49.956;20.004;2023-08-20T01:58:03;98706.63;;;18.09;88.10
56568;BME280;42456;49.956;20.004;2023-08-20T02:00:31;98704.42;;;18.08;88.29
56568;BME280;42456;49.956;20.004;2023-08-20T02:03:00;98704.80;;;18.07;88.49
56568;BME280;42456;49.956;20.004;2023-08-20T02:05:27;98709.05;;;18.05;88.38
56568;BME280;42456;49.956;20.004;2023-08-20T02:07:55;98711.91;;;18.04;88.71
56568;BME280;42456;49.956;20.004;2023-08-20T02:10:22;98708.37;;;18.01;88.86
56568;BME280;42456;49.956;20.004;2023-08-20T02:12:49;98718.19;;;18.02;88.94
56568;BME280;42456;49.956;20.004;2023-08-20T02:15:16;98716.77;;;18.00;88.85
56568;BME280;42456;49.956;20.004;2023-08-20T02:17:43;98715.34;;;17.99;89.10
56568;BME280;42456;49.956;20.004;2023-08-20T02:20:10;98713.91;;;17.96;88.79
56568;BME280;42456;49.956;20.004;2023-08-20T02:22:38;98715.66;;;17.94;88.81
56568;BME280;42456;49.956;20.004;2023-08-20T02:25:05;98710.49;;;17.92;88.87
56568;BME280;42456;49.956;20.004;2023-08-20T02:27:33;98710.69;;;17.90;88.82
56568;BME280;42456;49.956;20.004;2023-08-20T02:30:00;98709.66;;;17.88;88.71
56568;BME280;42456;49.956;20.004;2023-08-20T02:32:27;98712.14;;;17.88;88.82
56568;BME280;42456;49.956;20.004;2023-08-20T02:34:54;98711.66;;;17.86;88.81
56568;BME280;42456;49.956;20.004;2023-08-20T02:37:22;98709.08;;;17.85;88.96
56568;BME280;42456;49.956;20.004;2023-08-20T02:39:49;98708.02;;;17.83;88.84
56568;BME280;42456;49.956;20.004;2023-08-20T02:42:19;98708.54;;;17.81;88.70
56568;BME280;42456;49.956;20.004;2023-08-20T02:44:46;98700.46;;;17.77;89.00
56568;BME280;42456;49.956;20.004;2023-08-20T02:47:13;98707.28;;;17.75;89.12
56568;BME280;42456;49.956;20.004;2023-08-20T02:49:41;98705.93;;;17.73;89.30
56568;BME280;42456;49.956;20.004;2023-08-20T02:52:08;98707.84;;;17.71;88.95
56568;BME280;42456;49.956;20.004;2023-08-20T02:54:35;98703.90;;;17.68;88.92
56568;BME280;42456;49.956;20.004;2023-08-20T02:57:03;98703.50;;;17.67;88.99
56568;BME280;42456;49.956;20.004;2023-08-20T02:59:30;98701.31;;;17.67;89.21
56568;BME280;42456;49.956;20.004;2023-08-20T03:01:57;98699.00;;;17.68;89.37
56568;BME280;42456;49.956;20.004;2023-08-20T03:04:25;98704.67;;;17.68;89.36
56568;BME280;42456;49.956;20.004;2023-08-20T03:06:52;98708.55;;;17.67;89.47
56568;BME280;42456;49.956;20.004;2023-08-20T03:09:19;98708.72;;;17.68;89.55
56568;BME280;42456;49.956;20.004;2023-08-20T03:11:46;98710.26;;;17.67;89.66
56568;BME280;42456;49.956;20.004;2023-08-20T03:14:13;98711.80;;;17.67;89.77
56568;BME280;42456;49.956;20.004;2023-08-20T03:16:40;98712.26;;;17.66;89.73
56568;BME280;42456;49.956;20.004;2023-08-20T03:19:07;98716.20;;;17.65;89.65
56568;BME280;42456;49.956;20.004;2023-08-20T03:21:35;98717.96;;;17.63;89.78
56568;BME280;42456;49.956;20.004;2023-08-20T03:24:02;98717.80;;;17.62;89.90
56568;BME280;42456;49.956;20.004;2023-08-20T03:26:29;98718.85;;;17.60;90.00
56568;BME280;42456;49.956;20.004;2023-08-20T03:28:56;98717.98;;;17.59;90.09
56568;BME280;42456;49.956;20.004;2023-08-20T03:31:24;98721.61;;;17.59;90.16
56568;BME280;42456;49.956;20.004;2023-08-20T03:33:54;98721.30;;;17.58;90.02
56568;BME280;42456;49.956;20.004;2023-08-20T03:36:21;98723.16;;;17.58;90.05
56568;BME280;42456;49.956;20.004;2023-08-20T03:38:48;98729.54;;;17.58;90.36
56568;BME280;42456;49.956;20.004;2023-08-20T03:41:15;98730.29;;;17.57;90.39
56568;BME280;42456;49.956;20.004;2023-08-20T03:43:42;98730.90;;;17.56;90.30
56568;BME280;42456;49.956;20.004;2023-08-20T03:46:09;98734.63;;;17.56;90.36
56568;BME280;42456;49.956;20.004;2023-08-20T03:48:37;98733.08;;;17.56;90.45
56568;BME280;42456;49.956;20.004;2023-08-20T03:51:04;98734.20;;;17.58;90.38
56568;BME280;42456;49.956;20.004;2023-08-20T03:53:31;98735.85;;;17.59;90.56
56568;BME280;42456;49.956;20.004;2023-08-20T03:55:58;98732.84;;;17.61;90.76
56568;BME280;42456;49.956;20.004;2023-08-20T03:58:25;98734.13;;;17.63;90.64
56568;BME280;42456;49.956;20.004;2023-08-20T04:00:52;98737.27;;;17.65;90.82
56568;BME280;42456;49.956;20.004;2023-08-20T04:03:20;98739.09;;;17.68;90.83
56568;BME280;42456;49.956;20.004;2023-08-20T04:05:49;98737.90;;;17.70;90.74
56568;BME280;42456;49.956;20.004;2023-08-20T04:08:16;98738.80;;;17.73;90.90
56568;BME280;42456;49.956;20.004;2023-08-20T04:10:44;98743.90;;;17.76;91.09
56568;BME280;42456;49.956;20.004;2023-08-20T04:13:14;98742.41;;;17.79;90.90
56568;BME280;42456;49.956;20.004;2023-08-20T04:15:42;98740.52;;;17.83;90.85
56568;BME280;42456;49.956;20.004;2023-08-20T04:18:09;98745.09;;;17.88;90.90
56568;BME280;42456;49.956;20.004;2023-08-20T04:20:37;98744.33;;;17.92;90.90
56568;BME280;42456;49.956;20.004;2023-08-20T04:23:04;98745.73;;;17.98;91.29
56568;BME280;42456;49.956;20.004;2023-08-20T04:25:31;98743.77;;;18.02;91.23
56568;BME280;42456;49.956;20.004;2023-08-20T04:27:58;98745.36;;;18.10;91.07
56568;BME280;42456;49.956;20.004;2023-08-20T04:30:25;98747.73;;;18.18;91.12
56568;BME280;42456;49.956;20.004;2023-08-20T04:32:52;98749.73;;;18.26;90.83
56568;BME280;42456;49.956;20.004;2023-08-20T04:35:20;98751.82;;;18.36;90.91
56568;BME280;42456;49.956;20.004;2023-08-20T04:37:48;98751.91;;;18.46;90.80
56568;BME280;42456;49.956;20.004;2023-08-20T04:40:15;98756.94;;;18.60;90.95
56568;BME280;42456;49.956;20.004;2023-08-20T04:42:44;98760.14;;;18.74;90.80
56568;BME280;42456;49.956;20.004;2023-08-20T04:45:11;98759.79;;;18.89;90.65
56568;BME280;42456;49.956;20.004;2023-08-20T04:47:38;98759.56;;;19.04;90.38
56568;BME280;42456;49.956;20.004;2023-08-20T04:50:06;98761.00;;;19.19;90.27
56568;BME280;42456;49.956;20.004;2023-08-20T04:52:35;98762.67;;;19.34;90.13
56568;BME280;42456;49.956;20.004;2023-08-20T04:55:03;98761.27;;;19.50;90.00
56568;BME280;42456;49.956;20.004;2023-08-20T04:57:30;98761.20;;;19.66;89.97
56568;BME280;42456;49.956;20.004;2023-08-20T04:59:57;98758.00;;;19.84;89.79
56568;BME280;42456;49.956;20.004;2023-08-20T05:02:24;98760.34;;;20.04;89.66
56568;BME280;42456;49.956;20.004;2023-08-20T05:04:56;98759.56;;;20.22;89.34
56568;BME280;42456;49.956;20.004;2023-08-20T05:07:24;98758.34;;;20.38;89.04
56568;BME280;42456;49.956;20.004;2023-08-20T05:09:52;98761.17;;;20.57;88.79
56568;BME280;42456;49.956;20.004;2023-08-20T05:12:21;98760.27;;;20.75;88.84
56568;BME280;42456;49.956;20.004;2023-08-20T05:14:49;98758.34;;;20.97;88.89
56568;BME280;42456;49.956;20.004;2023-08-20T05:17:16;98754.20;;;21.18;88.35
56568;BME280;42456;49.956;20.004;2023-08-20T05:19:45;98752.05;;;21.38;87.97
56568;BME280;42456;49.956;20.004;2023-08-20T05:22:12;98752.71;;;21.59;87.26
56568;BME280;42456;49.956;20.004;2023-08-20T05:24:39;98754.55;;;21.77;86.78
56568;BME280;42456;49.956;20.004;2023-08-20T05:27:12;98753.55;;;21.94;86.34
56568;BME280;42456;49.956;20.004;2023-08-20T05:29:41;98750.56;;;22.12;85.57
56568;BME280;42456;49.956;20.004;2023-08-20T05:32:08;98754.77;;;22.31;85.44
56568;BME280;42456;49.956;20.004;2023-08-20T05:34:36;98756.16;;;22.46;84.84
56568;BME280;42456;49.956;20.004;2023-08-20T05:37:03;98757.31;;;22.62;84.59
56568;BME280;42456;49.956;20.004;2023-08-20T05:39:30;98757.80;;;22.78;84.14
56568;BME280;42456;49.956;20.004;2023-08-20T05:42:03;98757.50;;;22.97;83.91
56568;BME280;42456;49.956;20.004;2023-08-20T05:44:31;98759.55;;;23.13;83.41
56568;BME280;42456;49.956;20.004;2023-08-20T05:46:58;98760.55;;;23.34;83.28
56568;BME280;42456;49.956;20.004;2023-08-20T05:49:26;98758.39;;;23.54;82.78
56568;BME280;42456;49.956;20.004;2023-08-20T05:51:57;98763.26;;;23.77;82.63
56568;BME280;42456;49.956;20.004;2023-08-20T05:54:24;98768.12;;;23.99;82.23
56568;BME280;42456;49.956;20.004;2023-08-20T05:56:51;98767.31;;;24.21;81.82
56568;BME280;42456;49.956;20.004;2023-08-20T05:59:18;98767.55;;;24.45;81.58
56568;BME280;42456;49.956;20.004;2023-08-20T06:01:45;98771.98;;;24.66;80.63
56568;BME280;42456;49.956;20.004;2023-08-20T06:04:13;98773.25;;;24.87;80.22
56568;BME280;42456;49.956;20.004;2023-08-20T06:06:40;98774.92;;;25.05;80.02
56568;BME280;42456;49.956;20.004;2023-08-20T06:09:07;98775.15;;;25.24;79.59
56568;BME280;42456;49.956;20.004;2023-08-20T06:11:35;98775.54;;;25.38;78.75
56568;BME280;42456;49.956;20.004;2023-08-20T06:14:03;98777.98;;;25.54;78.70
56568;BME280;42456;49.956;20.004;2023-08-20T06:16:30;98776.73;;;25.69;78.02
56568;BME280;42456;49.956;20.004;2023-08-20T06:18:58;98775.58;;;25.83;77.93
56568;BME280;42456;49.956;20.004;2023-08-20T06:21:28;98778.96;;;25.99;77.23
56568;BME280;42456;49.956;20.004;2023-08-20T06:23:56;98778.52;;;26.12;76.73
56568;BME280;42456;49.956;20.004;2023-08-20T06:26:23;98786.46;;;26.26;75.93
56568;BME280;42456;49.956;20.004;2023-08-20T06:28:51;98785.22;;;26.39;75.47
56568;BME280;42456;49.956;20.004;2023-08-20T06:31:18;98786.61;;;26.49;75.10
56568;BME280;42456;49.956;20.004;2023-08-20T06:33:47;98794.58;;;26.63;73.74
56568;BME280;42456;49.956;20.004;2023-08-20T06:36:14;98788.20;;;26.71;73.05
56568;BME280;42456;49.956;20.004;2023-08-20T06:38:43;98787.27;;;26.83;72.97
56568;BME280;42456;49.956;20.004;2023-08-20T06:41:11;98786.49;;;26.94;73.23
56568;BME280;42456;49.956;20.004;2023-08-20T06:43:38;98788.32;;;27.05;72.89
56568;BME280;42456;49.956;20.004;2023-08-20T06:46:05;98791.90;;;27.19;73.16
56568;BME280;42456;49.956;20.004;2023-08-20T06:48:33;98792.96;;;27.36;73.16
56568;BME280;42456;49.956;20.004;2023-08-20T06:51:20;98800.19;;;27.53;72.34
56568;BME280;42456;49.956;20.004;2023-08-20T06:53:49;98805.13;;;27.72;71.51
56568;BME280;42456;49.956;20.004;2023-08-20T06:56:16;98804.56;;;27.86;70.73
56568;BME280;42456;49.956;20.004;2023-08-20T06:58:43;98807.81;;;28.00;69.85
56568;BME280;42456;49.956;20.004;2023-08-20T07:01:10;98809.14;;;28.14;69.33
56568;BME280;42456;49.956;20.004;2023-08-20T07:03:40;98804.95;;;28.29;69.17
56568;BME280;42456;49.956;20.004;2023-08-20T07:06:09;98810.38;;;28.43;68.10
56568;BME280;42456;49.956;20.004;2023-08-20T07:08:37;98806.08;;;28.56;67.12
56568;BME280;42456;49.956;20.004;2023-08-20T07:11:08;98810.04;;;28.68;66.62
56568;BME280;42456;49.956;20.004;2023-08-20T07:13:35;98810.63;;;28.79;66.02
56568;BME280;42456;49.956;20.004;2023-08-20T07:16:02;98811.14;;;28.88;65.56
56568;BME280;42456;49.956;20.004;2023-08-20T07:18:29;98815.14;;;28.98;65.25
56568;BME280;42456;49.956;20.004;2023-08-20T07:20:56;98814.84;;;29.07;64.92
56568;BME280;42456;49.956;20.004;2023-08-20T07:23:24;98811.39;;;29.17;64.75
56568;BME280;42456;49.956;20.004;2023-08-20T07:25:51;98815.37;;;29.25;64.04
56568;BME280;42456;49.956;20.004;2023-08-20T07:28:19;98811.42;;;29.35;64.03
56568;BME280;42456;49.956;20.004;2023-08-20T07:31:15;98811.96;;;29.49;63.91
56568;BME280;42456;49.956;20.004;2023-08-20T07:33:46;98816.41;;;29.56;63.50
56568;BME280;42456;49.956;20.004;2023-08-20T07:36:15;98817.45;;;29.61;63.24
56568;BME280;42456;49.956;20.004;2023-08-20T07:38:42;98816.86;;;29.71;62.45
56568;BME280;42456;49.956;20.004;2023-08-20T07:41:11;98816.33;;;29.75;61.74
56568;BME280;42456;49.956;20.004;2023-08-20T07:43:39;98818.36;;;29.78;61.88
56568;BME280;42456;49.956;20.004;2023-08-20T07:46:07;98818.86;;;29.80;61.78
56568;BME280;42456;49.956;20.004;2023-08-20T07:48:35;98816.19;;;29.84;61.30
56568;BME280;42456;49.956;20.004;2023-08-20T07:51:03;98815.19;;;29.91;61.02
56568;BME280;42456;49.956;20.004;2023-08-20T07:53:30;98818.47;;;30.00;60.35
56568;BME280;42456;49.956;20.004;2023-08-20T07:55:58;98818.19;;;30.04;60.06
56568;BME280;42456;49.956;20.004;2023-08-20T07:58:25;98813.91;;;30.11;59.62
56568;BME280;42456;49.956;20.004;2023-08-20T08:00:56;98814.10;;;30.20;60.05
56568;BME280;42456;49.956;20.004;2023-08-20T08:03:25;98811.98;;;30.29;59.58
56568;BME280;42456;49.956;20.004;2023-08-20T08:05:54;98816.72;;;30.37;58.84
56568;BME280;42456;49.956;20.004;2023-08-20T08:08:22;98814.10;;;30.44;58.70
56568;BME280;42456;49.956;20.004;2023-08-20T08:10:50;98814.73;;;30.48;58.08
56568;BME280;42456;49.956;20.004;2023-08-20T08:13:21;98816.61;;;30.47;57.81
56568;BME280;42456;49.956;20.004;2023-08-20T08:15:50;98814.73;;;30.53;58.34
56568;BME280;42456;49.956;20.004;2023-08-20T08:18:19;98812.30;;;30.59;58.01
56568;BME280;42456;49.956;20.004;2023-08-20T08:20:46;98816.38;;;30.66;57.87
56568;BME280;42456;49.956;20.004;2023-08-20T08:23:13;98815.40;;;30.71;57.90
56568;BME280;42456;49.956;20.004;2023-08-20T08:25:40;98814.52;;;30.79;57.99
56568;BME280;42456;49.956;20.004;2023-08-20T08:28:08;98813.55;;;30.85;57.76
56568;BME280;42456;49.956;20.004;2023-08-20T08:30:35;98810.64;;;30.93;57.42
56568;BME280;42456;49.956;20.004;2023-08-20T08:33:02;98811.30;;;31.01;56.89
56568;BME280;42456;49.956;20.004;2023-08-20T08:35:29;98811.00;;;31.08;56.61
56568;BME280;42456;49.956;20.004;2023-08-20T08:37:56;98812.98;;;31.14;56.56
56568;BME280;42456;49.956;20.004;2023-08-20T08:40:28;98815.89;;;31.19;56.21
56568;BME280;42456;49.956;20.004;2023-08-20T08:42:56;98818.02;;;31.24;55.88
56568;BME280;42456;49.956;20.004;2023-08-20T08:45:23;98822.21;;;31.29;56.14
56568;BME280;42456;49.956;20.004;2023-08-20T08:47:50;98820.80;;;31.35;56.40
56568;BME280;42456;49.956;20.004;2023-08-20T08:50:21;98819.27;;;31.38;55.82
56568;BME280;42456;49.956;20.004;2023-08-20T08:52:51;98816.38;;;31.43;55.87
56568;BME280;42456;49.956;20.004;2023-08-20T08:55:19;98815.63;;;31.48;55.24
56568;BME280;42456;49.956;20.004;2023-08-20T08:57:46;98812.70;;;31.47;54.38
56568;BME280;42456;49.956;20.004;2023-08-20T09:00:13;98816.77;;;31.47;55.10
56568;BME280;42456;49.956;20.004;2023-08-20T09:02:41;98817.52;;;31.52;55.23
56568;BME280;42456;49.956;20.004;2023-08-20T09:05:08;98818.58;;;31.58;54.75
56568;BME280;42456;49.956;20.004;2023-08-20T09:07:35;98818.52;;;31.62;54.11
56568;BME280;42456;49.956;20.004;2023-08-20T09:10:03;98819.02;;;31.63;53.51
56568;BME280;42456;49.956;20.004;2023-08-20T09:12:34;98818.05;;;31.63;53.37
56568;BME280;42456;49.956;20.004;2023-08-20T09:15:01;98815.44;;;31.59;53.39
56568;BME280;42456;49.956;20.004;2023-08-20T09:17:28;98817.41;;;31.59;54.02
56568;BME280;42456;49.956;20.004;2023-08-20T09:19:56;98813.75;;;31.61;53.95
56568;BME280;42456;49.956;20.004;2023-08-20T09:22:26;98814.17;;;31.65;53.36
56568;BME280;42456;49.956;20.004;2023-08-20T09:24:55;98818.86;;;31.69;53.59
56568;BME280;42456;49.956;20.004;2023-08-20T09:27:23;98818.73;;;31.74;53.66
56568;BME280;42456;49.956;20.004;2023-08-20T09:29:55;98819.42;;;31.73;52.73
56568;BME280;42456;49.956;20.004;2023-08-20T09:32:26;98816.95;;;31.74;52.95
56568;BME280;42456;49.956;20.004;2023-08-20T09:34:54;98817.20;;;31.79;52.38
56568;BME280;42456;49.956;20.004;2023-08-20T09:37:23;98816.88;;;31.78;52.01
56568;BME280;42456;49.956;20.004;2023-08-20T09:39:50;98817.25;;;31.77;51.66
56568;BME280;42456;49.956;20.004;2023-08-20T09:42:18;98812.73;;;31.75;51.67
56568;BME280;42456;49.956;20.004;2023-08-20T09:44:46;98808.71;;;31.73;51.30
56568;BME280;42456;49.956;20.004;2023-08-20T09:47:18;98806.06;;;31.69;50.85
56568;BME280;42456;49.956;20.004;2023-08-20T09:49:47;98810.62;;;31.72;51.91
56568;BME280;42456;49.956;20.004;2023-08-20T09:52:25;98809.29;;;31.78;52.96
56568;BME280;42456;49.956;20.004;2023-08-20T09:57:39;98808.13;;;31.93;52.49
56568;BME280;42456;49.956;20.004;2023-08-20T10:00:12;98811.45;;;31.98;52.01
56568;BME280;42456;49.956;20.004;2023-08-20T10:02:43;98806.98;;;31.98;51.38
56568;BME280;42456;49.956;20.004;2023-08-20T10:05:12;98803.30;;;31.99;51.47
56568;BME280;42456;49.956;20.004;2023-08-20T10:07:39;98805.70;;;32.01;51.71
56568;BME280;42456;49.956;20.004;2023-08-20T10:10:08;98804.87;;;32.05;51.93
56568;BME280;42456;49.956;20.004;2023-08-20T10:12:37;98801.18;;;32.12;51.14
56568;BME280;42456;49.956;20.004;2023-08-20T10:15:09;98796.62;;;32.20;51.26
56568;BME280;42456;49.956;20.004;2023-08-20T10:17:38;98795.30;;;32.28;51.18
56568;BME280;42456;49.956;20.004;2023-08-20T10:20:07;98794.81;;;32.35;51.07
56568;BME280;42456;49.956;20.004;2023-08-20T10:22:38;98796.78;;;32.43;51.13
56568;BME280;42456;49.956;20.004;2023-08-20T10:25:07;98796.73;;;32.50;50.98
56568;BME280;42456;49.956;20.004;2023-08-20T10:27:36;98800.23;;;32.57;50.57
56568;BME280;42456;49.956;20.004;2023-08-20T10:30:11;98796.55;;;32.67;50.62
56568;BME280;42456;49.956;20.004;2023-08-20T10:32:53;98797.64;;;32.77;50.40
56568;BME280;42456;49.956;20.004;2023-08-20T10:35:28;98799.20;;;32.85;50.40
56568;BME280;42456;49.956;20.004;2023-08-20T10:38:05;98796.61;;;32.90;50.61
56568;BME280;42456;49.956;20.004;2023-08-20T10:40:47;98796.02;;;32.96;50.61
56568;BME280;42456;49.956;20.004;2023-08-20T10:43:29;98783.56;;;33.02;50.32
56568;BME280;42456;49.956;20.004;2023-08-20T10:46:13;98782.96;;;33.06;50.10
56568;BME280;42456;49.956;20.004;2023-08-20T10:48:48;98778.73;;;33.05;48.71
56568;BME280;42456;49.956;20.004;2023-08-20T10:59:17;98775.73;;;32.90;46.45
56568;BME280;42456;49.956;20.004;2023-08-20T11:01:50;98772.00;;;32.94;46.98
56568;BME280;42456;49.956;20.004;2023-08-20T11:04:23;98768.89;;;32.99;47.16
56568;BME280;42456;49.956;20.004;2023-08-20T11:06:55;98762.75;;;33.06;47.47
56568;BME280;42456;49.956;20.004;2023-08-20T11:09:24;98762.79;;;33.14;48.00
56568;BME280;42456;49.956;20.004;2023-08-20T11:11:55;98768.38;;;33.24;48.13
56568;BME280;42456;49.956;20.004;2023-08-20T11:14:23;98765.60;;;33.32;47.58
56568;BME280;42456;49.956;20.004;2023-08-20T11:16:51;98763.08;;;33.35;47.38
56568;BME280;42456;49.956;20.004;2023-08-20T11:19:22;98757.91;;;33.40;47.64
56568;BME280;42456;49.956;20.004;2023-08-20T11:21:51;98757.27;;;33.47;47.74
56568;BME280;42456;49.956;20.004;2023-08-20T11:24:18;98758.90;;;33.58;47.60
56568;BME280;42456;49.956;20.004;2023-08-20T11:26:47;98763.22;;;33.69;47.08
56568;BME280;42456;49.956;20.004;2023-08-20T11:29:16;98758.95;;;33.73;46.60
56568;BME280;42456;49.956;20.004;2023-08-20T11:31:49;98754.72;;;33.76;46.60
56568;BME280;42456;49.956;20.004;2023-08-20T11:34:18;98751.25;;;33.84;46.39
56568;BME280;42456;49.956;20.004;2023-08-20T11:36:48;98752.89;;;33.88;46.12
56568;BME280;42456;49.956;20.004;2023-08-20T11:39:16;98755.13;;;33.95;46.16
56568;BME280;42456;49.956;20.004;2023-08-20T11:41:43;98750.31;;;34.00;45.64
56568;BME280;42456;49.956;20.004;2023-08-20T11:44:11;98754.79;;;34.03;45.42
56568;BME280;42456;49.956;20.004;2023-08-20T11:46:44;98755.71;;;34.05;44.92
56568;BME280;42456;49.956;20.004;2023-08-20T11:49:12;98753.14;;;34.06;44.89
56568;BME280;42456;49.956;20.004;2023-08-20T11:51:41;98753.21;;;34.02;44.95
56568;BME280;42456;49.956;20.004;2023-08-20T11:54:10;98751.85;;;33.98;44.80
56568;BME280;42456;49.956;20.004;2023-08-20T11:56:48;98753.77;;;33.93;44.42
56568;BME280;42456;49.956;20.004;2023-08-20T11:59:17;98751.39;;;33.91;44.57
56568;BME280;42456;49.956;20.004;2023-08-20T12:01:51;98748.92;;;33.94;44.28
56568;BME280;42456;49.956;20.004;2023-08-20T12:04:18;98746.59;;;33.94;44.61
56568;BME280;42456;49.956;20.004;2023-08-20T12:07:04;98743.33;;;33.96;44.65
56568;BME280;42456;49.956;20.004;2023-08-20T12:09:32;98737.65;;;34.03;44.27
56568;BME280;42456;49.956;20.004;2023-08-20T12:12:00;98733.52;;;34.12;44.10
56568;BME280;42456;49.956;20.004;2023-08-20T12:14:28;98735.66;;;34.17;44.30
56568;BME280;42456;49.956;20.004;2023-08-20T12:16:55;98736.09;;;34.23;44.21
56568;BME280;42456;49.956;20.004;2023-08-20T12:19:24;98735.70;;;34.24;44.29
56568;BME280;42456;49.956;20.004;2023-08-20T12:21:51;98732.52;;;34.24;44.33
56568;BME280;42456;49.956;20.004;2023-08-20T12:24:18;98729.52;;;34.26;44.36
56568;BME280;42456;49.956;20.004;2023-08-20T12:26:46;98730.64;;;34.31;44.40
56568;BME280;42456;49.956;20.004;2023-08-20T12:29:13;98728.02;;;34.30;44.19
56568;BME280;42456;49.956;20.004;2023-08-20T12:31:41;98722.78;;;34.30;43.75
56568;BME280;42456;49.956;20.004;2023-08-20T12:34:09;98724.73;;;34.31;43.88
56568;BME280;42456;49.956;20.004;2023-08-20T12:36:36;98727.77;;;34.30;43.60
56568;BME280;42456;49.956;20.004;2023-08-20T12:39:04;98726.35;;;34.35;43.96
56568;BME280;42456;49.956;20.004;2023-08-20T12:41:31;98724.22;;;34.42;43.94
56568;BME280;42456;49.956;20.004;2023-08-20T12:43:59;98718.67;;;34.44;43.58
56568;BME280;42456;49.956;20.004;2023-08-20T12:46:26;98715.79;;;34.44;43.62
56568;BME280;42456;49.956;20.004;2023-08-20T12:48:54;98716.94;;;34.49;43.72
56568;BME280;42456;49.956;20.004;2023-08-20T12:51:21;98717.31;;;34.55;43.86
56568;BME280;42456;49.956;20.004;2023-08-20T12:53:48;98720.20;;;34.59;43.86
56568;BME280;42456;49.956;20.004;2023-08-20T12:56:15;98719.98;;;34.58;43.80
56568;BME280;42456;49.956;20.004;2023-08-20T12:58:43;98719.35;;;34.55;43.59
56568;BME280;42456;49.956;20.004;2023-08-20T13:01:11;98715.05;;;34.58;44.01
56568;BME280;42456;49.956;20.004;2023-08-20T13:03:38;98712.25;;;34.61;43.85
56568;BME280;42456;49.956;20.004;2023-08-20T13:06:06;98710.58;;;34.56;43.50
56568;BME280;42456;49.956;20.004;2023-08-20T13:08:34;98708.66;;;34.57;43.56
56568;BME280;42456;49.956;20.004;2023-08-20T13:11:03;98711.54;;;34.58;43.35
56568;BME280;42456;49.956;20.004;2023-08-20T13:13:32;98707.21;;;34.60;43.24
56568;BME280;42456;49.956;20.004;2023-08-20T13:16:00;98705.80;;;34.58;42.90